Crown Topaz — 3FAS9 — position and weather

sailwx.info

Track history (hours):
 
Tides and Currents Weather Stations Pressure Air Temp Water Temp Dewpoint Dewpoint Depression Visibility Wind Speed Wind Dir Waves Ship Positions

Crown Topaz

Last reported at 2017-May-30 03:28 UTC. Time now 2017-May-30 03:30 UTC.
Position N 51°16' E 004°23'.

Length 152 m; draft 7.2 m.

Type: Ship. MMSI: 357144000.

Date/timePositionNaut miles runAvg speedWind from/ knotsBaromVisibWave heightAir tempDewpointWater temp
2017-May-30 03:28N 51°16' E 004°23'0 0.0
2017-May-30 02:55N 51°16' E 004°23'0 0.0
2017-May-30 02:28N 51°16' E 004°23'0 0.0
2017-May-30 01:58N 51°16' E 004°23'0 0.0
2017-May-30 01:28N 51°16' E 004°23'0 0.0
2017-May-30 00:58N 51°16' E 004°23'0 0.0
2017-May-30 00:28N 51°16' E 004°23'0 0.0
2017-May-29 23:55N 51°16' E 004°23'0 0.0
2017-May-29 23:28N 51°16' E 004°23'0 0.0
2017-May-29 22:55N 51°16' E 004°23'0 0.0
2017-May-29 22:25N 51°16' E 004°23'0 0.0
2017-May-29 21:55N 51°16' E 004°23'0 0.0
2017-May-29 21:28N 51°16' E 004°23'0 0.0
2017-May-29 20:58N 51°16' E 004°23'0 0.0
2017-May-29 20:28N 51°16' E 004°23'0 0.0
2017-May-29 19:55N 51°16' E 004°23'0 0.0
2017-May-29 19:28N 51°16' E 004°23'0 0.0
2017-May-29 18:58N 51°16' E 004°23'0 0.0
2017-May-29 18:28N 51°16' E 004°23'0 0.0
2017-May-29 17:58N 51°16' E 004°23'0 0.0
2017-May-29 17:28N 51°16' E 004°23'0 0.0
2017-May-29 16:58N 51°16' E 004°23'0 0.0
2017-May-29 16:28N 51°16' E 004°23'0 0.0
2017-May-29 15:58N 51°16' E 004°23'0 0.0
2017-May-29 15:22N 51°16' E 004°23'0 0.0
2017-May-29 14:58N 51°16' E 004°23'0 0.0
2017-May-29 13:58N 51°16' E 004°23'0 0.0
2017-May-29 13:28N 51°16' E 004°23'0 0.0
2017-May-29 12:55N 51°16' E 004°23'0 0.0
2017-May-29 12:28N 51°16' E 004°23'0 0.0
2017-May-29 11:55N 51°16' E 004°23'0 0.0
2017-May-29 11:25N 51°16' E 004°23'1 1.9
2017-May-29 11:00N 51°16' E 004°21'1 2.6
2017-May-29 10:30N 51°17' E 004°20'0 0.0
2017-May-29 10:01N 51°17' E 004°20'0 0.0
2017-May-29 09:30N 51°17' E 004°20'1 2.5
2017-May-29 09:00N 51°18' E 004°19'3 6.8
2017-May-29 08:30N 51°21' E 004°16'5 9.1
2017-May-29 08:00N 51°24' E 004°11'5 9.4
2017-May-29 07:30N 51°22' E 004°04'5 9.1
2017-May-29 07:00N 51°26' E 003°60'510.2
2017-May-29 06:30N 51°22' E 003°55'5 9.6
2017-May-29 06:00N 51°21' E 003°48'510.2
2017-May-29 05:30N 51°25' E 003°42'510.1
2017-May-29 05:00N 51°25' E 003°34'510.7
2017-May-29 04:30N 51°25' E 003°26'714.9
2017-May-29 04:00N 51°24' E 003°14'815.1
2017-May-29 03:30N 51°24' E 003°02'815.8
2017-May-29 03:00N 51°22' E 002°49'611.3
2017-May-29 02:30N 51°22' E 002°40'4 8.9
2017-May-29 02:00N 51°22' E 002°33'5 9.7
2017-May-29 01:30N 51°21' E 002°26'5 9.6
2017-May-29 01:00N 51°18' E 002°19'510.1
2017-May-29 00:30N 51°15' E 002°13'713.8
2017-May-29 00:00N 51°12' E 002°03'816.8
2017-May-28 23:30N 51°08' E 001°51'816.5
2017-May-28 23:00N 51°03' E 001°41'815.9
2017-May-28 22:30N 50°57' E 001°32'715.0
2017-May-28 22:00N 50°51' E 001°25'815.6
2017-May-28 21:30N 50°44' E 001°22'916.2
2017-May-28 20:58N 50°38' E 001°11'2716.4
2017-May-28 19:20N 50°27' E 000°33'616.5
2017-May-28 18:59N 50°26' E 000°24'816.4
2017-May-28 18:30N 50°23' E 000°12'816.2
2017-May-28 18:00N 50°21' W 000°00'816.2
2017-May-28 17:30N 50°25' W 000°11'816.3
2017-May-28 17:00N 50°29' W 000°23'816.2
2017-May-28 16:30N 50°32' W 000°34'815.1
2017-May-28 16:00N 50°36' W 000°45'612.7
2017-May-28 15:31N 50°39' W 000°53'611.3
2017-May-28 15:01N 50°43' W 000°60'7 6.4
2017-May-28 13:58N 50°49' W 001°06'0 0.0
2017-May-28 13:28N 50°49' W 001°06'0 0.0
2017-May-28 12:58N 50°49' W 001°06'0 0.0
2017-May-28 12:28N 50°49' W 001°06'0 0.0
2017-May-28 11:58N 50°49' W 001°06'0 0.0
2017-May-28 11:28N 50°49' W 001°06'0 0.0
2017-May-28 10:58N 50°49' W 001°06'0 0.0
2017-May-28 10:28N 50°49' W 001°06'0 0.0
2017-May-28 09:58N 50°49' W 001°06'0 0.0
2017-May-28 09:28N 50°49' W 001°06'0 0.0
2017-May-28 08:58N 50°49' W 001°06'0 0.0
2017-May-28 08:28N 50°49' W 001°06'0 0.0
2017-May-28 07:58N 50°49' W 001°06'0 0.0
2017-May-28 07:28N 50°49' W 001°06'0 0.0
2017-May-28 06:58N 50°49' W 001°06'0 0.0
2017-May-28 06:28N 50°49' W 001°06'0 0.0
2017-May-28 05:58N 50°49' W 001°06'0 0.0
2017-May-28 05:28N 50°49' W 001°06'0 0.0
2017-May-28 04:58N 50°49' W 001°06'0 0.0
2017-May-28 04:28N 50°49' W 001°06'0 0.0
2017-May-28 03:58N 50°49' W 001°06'0 0.0
2017-May-28 03:28N 50°49' W 001°06'0 0.0
2017-May-28 02:58N 50°49' W 001°06'0 0.0
2017-May-28 02:28N 50°49' W 001°06'0 0.0
2017-May-28 01:58N 50°49' W 001°06'0 0.0
2017-May-28 01:28N 50°49' W 001°06'0 0.0
2017-May-28 00:58N 50°49' W 001°06'0 0.0
2017-May-28 00:28N 50°49' W 001°06'0 0.0
2017-May-27 23:58N 50°49' W 001°06'0 0.0
2017-May-27 23:28N 50°49' W 001°06'0 0.0
2017-May-27 22:58N 50°49' W 001°06'0 0.0
2017-May-27 22:28N 50°49' W 001°06'0 0.0
2017-May-27 21:58N 50°49' W 001°06'0 0.0
2017-May-27 21:28N 50°49' W 001°06'0 0.0
2017-May-27 20:58N 50°49' W 001°06'0 0.0
2017-May-27 20:28N 50°49' W 001°06'0 0.0
2017-May-27 19:58N 50°49' W 001°06'0 0.0
2017-May-27 19:28N 50°49' W 001°06'0 0.0
2017-May-27 18:58N 50°49' W 001°06'0 0.0
2017-May-27 18:28N 50°49' W 001°06'0 0.0
2017-May-27 17:58N 50°49' W 001°06'0 0.0
2017-May-27 17:28N 50°49' W 001°06'0 0.0
2017-May-27 16:58N 50°49' W 001°06'0 0.0
2017-May-27 16:28N 50°49' W 001°06'0 0.0
2017-May-27 15:58N 50°49' W 001°06'0 0.0
2017-May-27 15:28N 50°49' W 001°06'0 0.0
2017-May-27 14:58N 50°49' W 001°06'0 0.0
2017-May-27 14:28N 50°49' W 001°06'0 0.0
2017-May-27 13:28N 50°49' W 001°06'0 0.0
2017-May-27 12:58N 50°49' W 001°06'0 0.0
2017-May-27 12:28N 50°49' W 001°06'0 0.0
2017-May-27 11:58N 50°49' W 001°06'0 0.0
2017-May-27 11:28N 50°49' W 001°06'0 0.0
2017-May-27 10:58N 50°49' W 001°06'0 0.0
2017-May-27 10:25N 50°49' W 001°06'0 0.0
2017-May-27 10:00N 50°49' W 001°06'1 1.9
2017-May-27 09:30N 50°48' W 001°07'5 9.4
2017-May-27 09:01N 50°44' W 001°03'5 9.4
2017-May-27 08:30N 50°40' W 000°59'5 9.6
2017-May-27 08:00N 50°35' W 000°59'4 8.4
2017-May-27 07:30N 50°31' W 000°59'5 9.8
2017-May-27 06:59N 50°28' W 001°06'612.5
2017-May-27 06:30N 50°28' W 001°15'714.3
2017-May-27 06:00N 50°26' W 001°26'816.1
2017-May-27 05:30N 50°24' W 001°38'918.1
2017-May-27 05:00N 50°22' W 001°52'2716.7
2017-May-27 03:22N 50°15' W 002°34'616.2
2017-May-27 03:00N 50°14' W 002°43'816.4
2017-May-27 02:30N 50°12' W 002°55'816.5
2017-May-27 02:00N 50°09' W 003°07'816.5
2017-May-27 01:30N 50°07' W 003°19'816.4
2017-May-27 01:00N 50°04' W 003°31'816.3
2017-May-27 00:30N 50°01' W 003°43'916.7
2017-May-27 00:00N 49°58' W 003°56'917.2
2017-May-26 23:27N 49°55' W 004°10'817.5
2017-May-26 23:00N 49°53' W 004°21'917.6
2017-May-26 22:31N 49°50' W 004°34'  
Track history (hours):
 
Tides and Currents Weather Stations Pressure Air Temp Water Temp Dewpoint Dewpoint Depression Visibility Wind Speed Wind Dir Waves Ship Positions

Crown Topaz

Last reported at 2017-May-30 03:28 UTC. Time now 2017-May-30 03:30 UTC.
Position N 51°16' E 004°23'.

Length 152 m; draft 7.2 m.

Type: Ship. MMSI: 357144000.

Date/timePositionNaut miles runAvg speedWind from/ knotsBaromVisibWave heightAir tempDewpointWater temp
2017-May-30 03:28N 51°16' E 004°23'0 0.0
2017-May-30 02:55N 51°16' E 004°23'0 0.0
2017-May-30 02:28N 51°16' E 004°23'0 0.0
2017-May-30 01:58N 51°16' E 004°23'0 0.0
2017-May-30 01:28N 51°16' E 004°23'0 0.0
2017-May-30 00:58N 51°16' E 004°23'0 0.0
2017-May-30 00:28N 51°16' E 004°23'0 0.0
2017-May-29 23:55N 51°16' E 004°23'0 0.0
2017-May-29 23:28N 51°16' E 004°23'0 0.0
2017-May-29 22:55N 51°16' E 004°23'0 0.0
2017-May-29 22:25N 51°16' E 004°23'0 0.0
2017-May-29 21:55N 51°16' E 004°23'0 0.0
2017-May-29 21:28N 51°16' E 004°23'0 0.0
2017-May-29 20:58N 51°16' E 004°23'0 0.0
2017-May-29 20:28N 51°16' E 004°23'0 0.0
2017-May-29 19:55N 51°16' E 004°23'0 0.0
2017-May-29 19:28N 51°16' E 004°23'0 0.0
2017-May-29 18:58N 51°16' E 004°23'0 0.0
2017-May-29 18:28N 51°16' E 004°23'0 0.0
2017-May-29 17:58N 51°16' E 004°23'0 0.0
2017-May-29 17:28N 51°16' E 004°23'0 0.0
2017-May-29 16:58N 51°16' E 004°23'0 0.0
2017-May-29 16:28N 51°16' E 004°23'0 0.0
2017-May-29 15:58N 51°16' E 004°23'0 0.0
2017-May-29 15:22N 51°16' E 004°23'0 0.0
2017-May-29 14:58N 51°16' E 004°23'0 0.0
2017-May-29 13:58N 51°16' E 004°23'0 0.0
2017-May-29 13:28N 51°16' E 004°23'0 0.0
2017-May-29 12:55N 51°16' E 004°23'0 0.0
2017-May-29 12:28N 51°16' E 004°23'0 0.0
2017-May-29 11:55N 51°16' E 004°23'0 0.0
2017-May-29 11:25N 51°16' E 004°23'1 1.9
2017-May-29 11:00N 51°16' E 004°21'1 2.6
2017-May-29 10:30N 51°17' E 004°20'0 0.0
2017-May-29 10:01N 51°17' E 004°20'0 0.0
2017-May-29 09:30N 51°17' E 004°20'1 2.5
2017-May-29 09:00N 51°18' E 004°19'3 6.8
2017-May-29 08:30N 51°21' E 004°16'5 9.1
2017-May-29 08:00N 51°24' E 004°11'5 9.4
2017-May-29 07:30N 51°22' E 004°04'5 9.1
2017-May-29 07:00N 51°26' E 003°60'510.2
2017-May-29 06:30N 51°22' E 003°55'5 9.6
2017-May-29 06:00N 51°21' E 003°48'510.2
2017-May-29 05:30N 51°25' E 003°42'510.1
2017-May-29 05:00N 51°25' E 003°34'510.7
2017-May-29 04:30N 51°25' E 003°26'714.9
2017-May-29 04:00N 51°24' E 003°14'815.1
2017-May-29 03:30N 51°24' E 003°02'815.8
2017-May-29 03:00N 51°22' E 002°49'611.3
2017-May-29 02:30N 51°22' E 002°40'4 8.9
2017-May-29 02:00N 51°22' E 002°33'5 9.7
2017-May-29 01:30N 51°21' E 002°26'5 9.6
2017-May-29 01:00N 51°18' E 002°19'510.1
2017-May-29 00:30N 51°15' E 002°13'713.8
2017-May-29 00:00N 51°12' E 002°03'816.8
2017-May-28 23:30N 51°08' E 001°51'816.5
2017-May-28 23:00N 51°03' E 001°41'815.9
2017-May-28 22:30N 50°57' E 001°32'715.0
2017-May-28 22:00N 50°51' E 001°25'815.6
2017-May-28 21:30N 50°44' E 001°22'916.2
2017-May-28 20:58N 50°38' E 001°11'2716.4
2017-May-28 19:20N 50°27' E 000°33'616.5
2017-May-28 18:59N 50°26' E 000°24'816.4
2017-May-28 18:30N 50°23' E 000°12'816.2
2017-May-28 18:00N 50°21' W 000°00'816.2
2017-May-28 17:30N 50°25' W 000°11'816.3
2017-May-28 17:00N 50°29' W 000°23'816.2
2017-May-28 16:30N 50°32' W 000°34'815.1
2017-May-28 16:00N 50°36' W 000°45'612.7
2017-May-28 15:31N 50°39' W 000°53'611.3
2017-May-28 15:01N 50°43' W 000°60'7 6.4
2017-May-28 13:58N 50°49' W 001°06'0 0.0
2017-May-28 13:28N 50°49' W 001°06'0 0.0
2017-May-28 12:58N 50°49' W 001°06'0 0.0
2017-May-28 12:28N 50°49' W 001°06'0 0.0
2017-May-28 11:58N 50°49' W 001°06'0 0.0
2017-May-28 11:28N 50°49' W 001°06'0 0.0
2017-May-28 10:58N 50°49' W 001°06'0 0.0
2017-May-28 10:28N 50°49' W 001°06'0 0.0
2017-May-28 09:58N 50°49' W 001°06'0 0.0
2017-May-28 09:28N 50°49' W 001°06'0 0.0
2017-May-28 08:58N 50°49' W 001°06'0 0.0
2017-May-28 08:28N 50°49' W 001°06'0 0.0
2017-May-28 07:58N 50°49' W 001°06'0 0.0
2017-May-28 07:28N 50°49' W 001°06'0 0.0
2017-May-28 06:58N 50°49' W 001°06'0 0.0
2017-May-28 06:28N 50°49' W 001°06'0 0.0
2017-May-28 05:58N 50°49' W 001°06'0 0.0
2017-May-28 05:28N 50°49' W 001°06'0 0.0
2017-May-28 04:58N 50°49' W 001°06'0 0.0
2017-May-28 04:28N 50°49' W 001°06'0 0.0
2017-May-28 03:58N 50°49' W 001°06'0 0.0
2017-May-28 03:28N 50°49' W 001°06'0 0.0
2017-May-28 02:58N 50°49' W 001°06'0 0.0
2017-May-28 02:28N 50°49' W 001°06'0 0.0
2017-May-28 01:58N 50°49' W 001°06'0 0.0
2017-May-28 01:28N 50°49' W 001°06'0 0.0
2017-May-28 00:58N 50°49' W 001°06'0 0.0
2017-May-28 00:28N 50°49' W 001°06'0 0.0
2017-May-27 23:58N 50°49' W 001°06'0 0.0
2017-May-27 23:28N 50°49' W 001°06'0 0.0
2017-May-27 22:58N 50°49' W 001°06'0 0.0
2017-May-27 22:28N 50°49' W 001°06'0 0.0
2017-May-27 21:58N 50°49' W 001°06'0 0.0
2017-May-27 21:28N 50°49' W 001°06'0 0.0
2017-May-27 20:58N 50°49' W 001°06'0 0.0
2017-May-27 20:28N 50°49' W 001°06'0 0.0
2017-May-27 19:58N 50°49' W 001°06'0 0.0
2017-May-27 19:28N 50°49' W 001°06'0 0.0
2017-May-27 18:58N 50°49' W 001°06'0 0.0
2017-May-27 18:28N 50°49' W 001°06'0 0.0
2017-May-27 17:58N 50°49' W 001°06'0 0.0
2017-May-27 17:28N 50°49' W 001°06'0 0.0
2017-May-27 16:58N 50°49' W 001°06'0 0.0
2017-May-27 16:28N 50°49' W 001°06'0 0.0
2017-May-27 15:58N 50°49' W 001°06'0 0.0
2017-May-27 15:28N 50°49' W 001°06'0 0.0
2017-May-27 14:58N 50°49' W 001°06'0 0.0
2017-May-27 14:28N 50°49' W 001°06'0 0.0
2017-May-27 13:28N 50°49' W 001°06'0 0.0
2017-May-27 12:58N 50°49' W 001°06'0 0.0
2017-May-27 12:28N 50°49' W 001°06'0 0.0
2017-May-27 11:58N 50°49' W 001°06'0 0.0
2017-May-27 11:28N 50°49' W 001°06'0 0.0
2017-May-27 10:58N 50°49' W 001°06'0 0.0
2017-May-27 10:25N 50°49' W 001°06'0 0.0
2017-May-27 10:00N 50°49' W 001°06'1 1.9
2017-May-27 09:30N 50°48' W 001°07'5 9.4
2017-May-27 09:01N 50°44' W 001°03'5 9.4
2017-May-27 08:30N 50°40' W 000°59'5 9.6
2017-May-27 08:00N 50°35' W 000°59'4 8.4
2017-May-27 07:30N 50°31' W 000°59'5 9.8
2017-May-27 06:59N 50°28' W 001°06'612.5
2017-May-27 06:30N 50°28' W 001°15'714.3
2017-May-27 06:00N 50°26' W 001°26'816.1
2017-May-27 05:30N 50°24' W 001°38'918.1
2017-May-27 05:00N 50°22' W 001°52'2716.7
2017-May-27 03:22N 50°15' W 002°34'616.2
2017-May-27 03:00N 50°14' W 002°43'816.4
2017-May-27 02:30N 50°12' W 002°55'816.5
2017-May-27 02:00N 50°09' W 003°07'816.5
2017-May-27 01:30N 50°07' W 003°19'816.4
2017-May-27 01:00N 50°04' W 003°31'816.3
2017-May-27 00:30N 50°01' W 003°43'916.7
2017-May-27 00:00N 49°58' W 003°56'917.2
2017-May-26 23:27N 49°55' W 004°10'817.5
2017-May-26 23:00N 49°53' W 004°21'917.6
2017-May-26 22:31N 49°50' W 004°34'  

Dump ship's entire track history